sensor_id;sensor_type;location;lat;lon;timestamp;P1;durP1;ratioP1;P2;durP2;ratioP2
67041;SDS011;53949;47.790;18.750;2022-12-24T00:00:45;41.15;;;23.67;;
67041;SDS011;53949;47.790;18.750;2022-12-24T00:03:48;35.33;;;21.80;;
67041;SDS011;53949;47.790;18.750;2022-12-24T00:06:51;29.75;;;15.90;;
67041;SDS011;53949;47.790;18.750;2022-12-24T00:09:54;30.30;;;17.55;;
67041;SDS011;53949;47.790;18.750;2022-12-24T00:12:57;31.02;;;19.35;;
67041;SDS011;53949;47.790;18.750;2022-12-24T00:16:01;34.80;;;19.65;;
67041;SDS011;53949;47.790;18.750;2022-12-24T00:19:04;33.38;;;19.83;;
67041;SDS011;53949;47.790;18.750;2022-12-24T00:22:07;30.08;;;18.25;;
67041;SDS011;53949;47.790;18.750;2022-12-24T00:25:10;31.05;;;16.75;;
67041;SDS011;53949;47.790;18.750;2022-12-24T00:28:14;32.85;;;19.20;;
67041;SDS011;53949;47.790;18.750;2022-12-24T00:31:17;34.67;;;20.40;;
67041;SDS011;53949;47.790;18.750;2022-12-24T00:34:22;36.72;;;22.62;;
67041;SDS011;53949;47.790;18.750;2022-12-24T00:37:26;41.88;;;23.77;;
67041;SDS011;53949;47.790;18.750;2022-12-24T00:40:30;41.35;;;23.85;;
67041;SDS011;53949;47.790;18.750;2022-12-24T00:43:34;40.88;;;23.95;;
67041;SDS011;53949;47.790;18.750;2022-12-24T00:46:39;43.25;;;23.12;;
67041;SDS011;53949;47.790;18.750;2022-12-24T00:52:47;40.03;;;23.40;;
67041;SDS011;53949;47.790;18.750;2022-12-24T00:55:50;40.95;;;21.37;;
67041;SDS011;53949;47.790;18.750;2022-12-24T00:58:54;37.15;;;21.17;;
67041;SDS011;53949;47.790;18.750;2022-12-24T01:01:57;36.63;;;20.98;;
67041;SDS011;53949;47.790;18.750;2022-12-24T01:05:01;38.83;;;21.65;;
67041;SDS011;53949;47.790;18.750;2022-12-24T01:08:13;37.80;;;20.90;;
67041;SDS011;53949;47.790;18.750;2022-12-24T01:11:16;39.08;;;20.98;;
67041;SDS011;53949;47.790;18.750;2022-12-24T01:14:19;37.47;;;20.33;;
67041;SDS011;53949;47.790;18.750;2022-12-24T01:17:23;37.08;;;21.77;;
67041;SDS011;53949;47.790;18.750;2022-12-24T01:20:26;37.28;;;21.02;;
67041;SDS011;53949;47.790;18.750;2022-12-24T01:23:33;39.30;;;20.25;;
67041;SDS011;53949;47.790;18.750;2022-12-24T01:26:36;41.83;;;22.23;;
67041;SDS011;53949;47.790;18.750;2022-12-24T01:29:39;37.42;;;21.10;;
67041;SDS011;53949;47.790;18.750;2022-12-24T01:32:42;34.85;;;20.83;;
67041;SDS011;53949;47.790;18.750;2022-12-24T01:35:46;33.83;;;19.95;;
67041;SDS011;53949;47.790;18.750;2022-12-24T01:38:49;38.63;;;20.42;;
67041;SDS011;53949;47.790;18.750;2022-12-24T01:41:52;39.88;;;22.35;;
67041;SDS011;53949;47.790;18.750;2022-12-24T01:48:48;33.47;;;20.23;;
67041;SDS011;53949;47.790;18.750;2022-12-24T01:51:55;34.55;;;20.05;;
67041;SDS011;53949;47.790;18.750;2022-12-24T01:55:12;33.88;;;19.35;;
67041;SDS011;53949;47.790;18.750;2022-12-24T01:58:17;34.50;;;19.62;;
67041;SDS011;53949;47.790;18.750;2022-12-24T02:01:21;34.10;;;18.65;;
67041;SDS011;53949;47.790;18.750;2022-12-24T02:07:38;35.83;;;20.12;;
67041;SDS011;53949;47.790;18.750;2022-12-24T02:10:42;34.45;;;20.02;;
67041;SDS011;53949;47.790;18.750;2022-12-24T02:20:42;33.75;;;19.08;;
67041;SDS011;53949;47.790;18.750;2022-12-24T02:27:31;34.97;;;20.58;;
67041;SDS011;53949;47.790;18.750;2022-12-24T02:30:57;32.90;;;20.62;;
67041;SDS011;53949;47.790;18.750;2022-12-24T02:34:03;34.80;;;19.52;;
67041;SDS011;53949;47.790;18.750;2022-12-24T02:37:20;31.02;;;18.20;;
67041;SDS011;53949;47.790;18.750;2022-12-24T02:40:27;35.95;;;19.37;;
67041;SDS011;53949;47.790;18.750;2022-12-24T02:43:37;32.17;;;18.92;;
67041;SDS011;53949;47.790;18.750;2022-12-24T02:46:41;31.42;;;18.23;;
67041;SDS011;53949;47.790;18.750;2022-12-24T02:49:46;33.55;;;19.10;;
67041;SDS011;53949;47.790;18.750;2022-12-24T02:52:49;32.33;;;18.00;;
67041;SDS011;53949;47.790;18.750;2022-12-24T02:56:15;30.70;;;17.70;;
67041;SDS011;53949;47.790;18.750;2022-12-24T03:09:19;24.30;;;15.93;;
67041;SDS011;53949;47.790;18.750;2022-12-24T03:12:37;27.60;;;15.63;;
67041;SDS011;53949;47.790;18.750;2022-12-24T03:15:44;24.25;;;15.30;;
67041;SDS011;53949;47.790;18.750;2022-12-24T03:18:48;25.45;;;15.10;;
67041;SDS011;53949;47.790;18.750;2022-12-24T03:21:53;26.17;;;16.42;;
67041;SDS011;53949;47.790;18.750;2022-12-24T03:24:59;31.62;;;18.65;;
67041;SDS011;53949;47.790;18.750;2022-12-24T03:28:04;33.38;;;18.52;;
67041;SDS011;53949;47.790;18.750;2022-12-24T03:34:12;33.92;;;19.70;;
67041;SDS011;53949;47.790;18.750;2022-12-24T03:37:15;31.27;;;18.33;;
67041;SDS011;53949;47.790;18.750;2022-12-24T03:40:18;28.10;;;17.62;;
67041;SDS011;53949;47.790;18.750;2022-12-24T03:43:21;28.38;;;17.45;;
67041;SDS011;53949;47.790;18.750;2022-12-24T03:46:25;32.38;;;18.98;;
67041;SDS011;53949;47.790;18.750;2022-12-24T03:49:28;31.30;;;19.35;;
67041;SDS011;53949;47.790;18.750;2022-12-24T03:52:31;32.10;;;18.25;;
67041;SDS011;53949;47.790;18.750;2022-12-24T03:55:34;29.87;;;18.23;;
67041;SDS011;53949;47.790;18.750;2022-12-24T03:58:38;27.73;;;17.12;;
67041;SDS011;53949;47.790;18.750;2022-12-24T04:01:41;25.23;;;17.10;;
67041;SDS011;53949;47.790;18.750;2022-12-24T04:04:44;27.10;;;16.00;;
67041;SDS011;53949;47.790;18.750;2022-12-24T04:07:47;28.27;;;16.80;;
67041;SDS011;53949;47.790;18.750;2022-12-24T04:10:52;27.25;;;16.77;;
67041;SDS011;53949;47.790;18.750;2022-12-24T04:13:56;23.52;;;14.82;;
67041;SDS011;53949;47.790;18.750;2022-12-24T04:16:59;25.00;;;15.43;;
67041;SDS011;53949;47.790;18.750;2022-12-24T04:20:02;27.17;;;16.17;;
67041;SDS011;53949;47.790;18.750;2022-12-24T04:23:06;21.85;;;13.13;;
67041;SDS011;53949;47.790;18.750;2022-12-24T04:26:10;20.52;;;13.50;;
67041;SDS011;53949;47.790;18.750;2022-12-24T04:29:14;19.83;;;11.35;;
67041;SDS011;53949;47.790;18.750;2022-12-24T04:32:17;17.12;;;11.80;;
67041;SDS011;53949;47.790;18.750;2022-12-24T04:35:20;21.60;;;12.02;;
67041;SDS011;53949;47.790;18.750;2022-12-24T04:38:23;18.17;;;11.43;;
67041;SDS011;53949;47.790;18.750;2022-12-24T04:41:27;20.27;;;13.25;;
67041;SDS011;53949;47.790;18.750;2022-12-24T04:44:30;22.62;;;13.20;;
67041;SDS011;53949;47.790;18.750;2022-12-24T04:47:33;19.27;;;12.88;;
67041;SDS011;53949;47.790;18.750;2022-12-24T04:50:37;16.58;;;10.93;;
67041;SDS011;53949;47.790;18.750;2022-12-24T04:53:41;17.02;;;11.52;;
67041;SDS011;53949;47.790;18.750;2022-12-24T04:56:45;15.98;;;10.60;;
67041;SDS011;53949;47.790;18.750;2022-12-24T04:59:50;15.67;;;9.90;;
67041;SDS011;53949;47.790;18.750;2022-12-24T05:02:52;17.12;;;10.85;;
67041;SDS011;53949;47.790;18.750;2022-12-24T05:06:00;16.77;;;10.35;;
67041;SDS011;53949;47.790;18.750;2022-12-24T05:09:04;15.52;;;10.20;;
67041;SDS011;53949;47.790;18.750;2022-12-24T05:12:07;18.62;;;11.30;;
67041;SDS011;53949;47.790;18.750;2022-12-24T05:15:10;15.68;;;9.50;;
67041;SDS011;53949;47.790;18.750;2022-12-24T05:18:14;15.48;;;9.63;;
67041;SDS011;53949;47.790;18.750;2022-12-24T05:21:18;15.98;;;9.23;;
67041;SDS011;53949;47.790;18.750;2022-12-24T05:24:23;14.38;;;9.30;;
67041;SDS011;53949;47.790;18.750;2022-12-24T05:27:45;18.08;;;10.52;;
67041;SDS011;53949;47.790;18.750;2022-12-24T05:30:53;12.27;;;7.93;;
67041;SDS011;53949;47.790;18.750;2022-12-24T05:33:56;13.25;;;9.05;;
67041;SDS011;53949;47.790;18.750;2022-12-24T05:36:59;13.75;;;9.07;;
67041;SDS011;53949;47.790;18.750;2022-12-24T05:40:03;14.30;;;9.27;;
67041;SDS011;53949;47.790;18.750;2022-12-24T05:43:06;12.98;;;8.73;;
67041;SDS011;53949;47.790;18.750;2022-12-24T05:46:10;13.77;;;9.20;;
67041;SDS011;53949;47.790;18.750;2022-12-24T05:49:15;13.27;;;8.82;;
67041;SDS011;53949;47.790;18.750;2022-12-24T05:52:18;12.88;;;7.87;;
67041;SDS011;53949;47.790;18.750;2022-12-24T05:55:21;14.52;;;9.98;;
67041;SDS011;53949;47.790;18.750;2022-12-24T05:58:24;11.65;;;7.87;;
67041;SDS011;53949;47.790;18.750;2022-12-24T06:01:27;12.95;;;7.60;;
67041;SDS011;53949;47.790;18.750;2022-12-24T06:04:30;16.02;;;9.20;;
67041;SDS011;53949;47.790;18.750;2022-12-24T06:07:33;12.27;;;8.25;;
67041;SDS011;53949;47.790;18.750;2022-12-24T06:10:37;14.23;;;8.10;;
67041;SDS011;53949;47.790;18.750;2022-12-24T06:13:40;11.45;;;8.57;;
67041;SDS011;53949;47.790;18.750;2022-12-24T06:16:44;16.50;;;8.63;;
67041;SDS011;53949;47.790;18.750;2022-12-24T06:19:47;15.68;;;8.52;;
67041;SDS011;53949;47.790;18.750;2022-12-24T06:22:50;15.68;;;9.48;;
67041;SDS011;53949;47.790;18.750;2022-12-24T06:25:54;15.85;;;8.63;;
67041;SDS011;53949;47.790;18.750;2022-12-24T06:28:58;17.45;;;9.45;;
67041;SDS011;53949;47.790;18.750;2022-12-24T06:32:01;14.45;;;8.15;;
67041;SDS011;53949;47.790;18.750;2022-12-24T06:35:05;14.63;;;8.73;;
67041;SDS011;53949;47.790;18.750;2022-12-24T06:38:08;11.40;;;7.00;;
67041;SDS011;53949;47.790;18.750;2022-12-24T06:41:11;10.18;;;7.25;;
67041;SDS011;53949;47.790;18.750;2022-12-24T06:44:14;10.88;;;6.50;;
67041;SDS011;53949;47.790;18.750;2022-12-24T06:47:18;10.40;;;6.75;;
67041;SDS011;53949;47.790;18.750;2022-12-24T06:50:21;11.85;;;6.43;;
67041;SDS011;53949;47.790;18.750;2022-12-24T06:53:24;10.23;;;6.47;;
67041;SDS011;53949;47.790;18.750;2022-12-24T06:56:27;9.80;;;6.05;;
67041;SDS011;53949;47.790;18.750;2022-12-24T06:59:30;8.90;;;5.60;;
67041;SDS011;53949;47.790;18.750;2022-12-24T07:02:33;9.65;;;5.95;;
67041;SDS011;53949;47.790;18.750;2022-12-24T07:05:37;8.80;;;6.15;;
67041;SDS011;53949;47.790;18.750;2022-12-24T07:08:40;10.63;;;6.80;;
67041;SDS011;53949;47.790;18.750;2022-12-24T07:11:43;11.85;;;6.50;;
67041;SDS011;53949;47.790;18.750;2022-12-24T07:14:46;10.35;;;6.70;;
67041;SDS011;53949;47.790;18.750;2022-12-24T07:17:50;8.82;;;6.40;;
67041;SDS011;53949;47.790;18.750;2022-12-24T07:20:54;8.48;;;5.85;;
67041;SDS011;53949;47.790;18.750;2022-12-24T07:23:57;9.45;;;5.80;;
67041;SDS011;53949;47.790;18.750;2022-12-24T07:27:01;9.90;;;6.07;;
67041;SDS011;53949;47.790;18.750;2022-12-24T07:30:06;7.70;;;5.55;;
67041;SDS011;53949;47.790;18.750;2022-12-24T07:33:11;10.77;;;6.80;;
67041;SDS011;53949;47.790;18.750;2022-12-24T07:36:16;9.20;;;5.68;;
67041;SDS011;53949;47.790;18.750;2022-12-24T07:39:20;8.25;;;5.78;;
67041;SDS011;53949;47.790;18.750;2022-12-24T07:42:24;8.38;;;5.72;;
67041;SDS011;53949;47.790;18.750;2022-12-24T07:45:27;8.90;;;5.75;;
67041;SDS011;53949;47.790;18.750;2022-12-24T07:48:30;8.20;;;5.43;;
67041;SDS011;53949;47.790;18.750;2022-12-24T07:51:34;8.85;;;5.53;;
67041;SDS011;53949;47.790;18.750;2022-12-24T07:54:38;7.80;;;5.03;;
67041;SDS011;53949;47.790;18.750;2022-12-24T07:57:41;8.57;;;5.62;;
67041;SDS011;53949;47.790;18.750;2022-12-24T08:00:44;11.75;;;7.40;;
67041;SDS011;53949;47.790;18.750;2022-12-24T08:03:48;10.05;;;6.25;;
67041;SDS011;53949;47.790;18.750;2022-12-24T08:06:53;11.12;;;7.20;;
67041;SDS011;53949;47.790;18.750;2022-12-24T08:09:56;10.35;;;6.65;;
67041;SDS011;53949;47.790;18.750;2022-12-24T08:12:59;10.38;;;7.40;;
67041;SDS011;53949;47.790;18.750;2022-12-24T08:16:04;10.77;;;5.97;;
67041;SDS011;53949;47.790;18.750;2022-12-24T08:19:07;9.48;;;6.22;;
67041;SDS011;53949;47.790;18.750;2022-12-24T08:22:10;9.10;;;6.70;;
67041;SDS011;53949;47.790;18.750;2022-12-24T08:25:13;7.80;;;4.95;;
67041;SDS011;53949;47.790;18.750;2022-12-24T08:28:19;7.53;;;5.22;;
67041;SDS011;53949;47.790;18.750;2022-12-24T08:31:22;8.05;;;5.43;;
67041;SDS011;53949;47.790;18.750;2022-12-24T08:34:26;10.68;;;5.05;;
67041;SDS011;53949;47.790;18.750;2022-12-24T08:37:29;6.25;;;4.22;;
67041;SDS011;53949;47.790;18.750;2022-12-24T08:40:33;9.57;;;4.57;;
67041;SDS011;53949;47.790;18.750;2022-12-24T08:43:36;6.57;;;4.00;;
67041;SDS011;53949;47.790;18.750;2022-12-24T08:46:39;5.90;;;3.83;;
67041;SDS011;53949;47.790;18.750;2022-12-24T08:49:42;6.60;;;4.07;;
67041;SDS011;53949;47.790;18.750;2022-12-24T08:52:46;7.85;;;4.40;;
67041;SDS011;53949;47.790;18.750;2022-12-24T08:55:49;5.75;;;3.85;;
67041;SDS011;53949;47.790;18.750;2022-12-24T08:58:58;4.45;;;2.85;;
67041;SDS011;53949;47.790;18.750;2022-12-24T09:02:01;6.40;;;3.60;;
67041;SDS011;53949;47.790;18.750;2022-12-24T09:05:04;5.85;;;3.70;;
67041;SDS011;53949;47.790;18.750;2022-12-24T09:08:08;7.85;;;4.50;;
67041;SDS011;53949;47.790;18.750;2022-12-24T09:11:15;6.30;;;3.90;;
67041;SDS011;53949;47.790;18.750;2022-12-24T09:14:19;6.00;;;4.07;;
67041;SDS011;53949;47.790;18.750;2022-12-24T09:17:23;5.45;;;3.95;;
67041;SDS011;53949;47.790;18.750;2022-12-24T09:20:26;4.65;;;3.85;;
67041;SDS011;53949;47.790;18.750;2022-12-24T09:23:30;5.20;;;3.65;;
67041;SDS011;53949;47.790;18.750;2022-12-24T09:26:35;3.95;;;3.55;;
67041;SDS011;53949;47.790;18.750;2022-12-24T09:29:38;5.47;;;3.87;;
67041;SDS011;53949;47.790;18.750;2022-12-24T09:32:42;5.40;;;3.60;;
67041;SDS011;53949;47.790;18.750;2022-12-24T09:35:45;4.45;;;2.83;;
67041;SDS011;53949;47.790;18.750;2022-12-24T09:38:48;5.55;;;3.12;;
67041;SDS011;53949;47.790;18.750;2022-12-24T09:42:06;4.12;;;2.90;;
67041;SDS011;53949;47.790;18.750;2022-12-24T09:45:32;5.07;;;3.30;;
67041;SDS011;53949;47.790;18.750;2022-12-24T09:48:38;5.47;;;3.00;;
67041;SDS011;53949;47.790;18.750;2022-12-24T09:51:52;4.18;;;2.83;;
67041;SDS011;53949;47.790;18.750;2022-12-24T09:58:14;4.00;;;2.92;;
67041;SDS011;53949;47.790;18.750;2022-12-24T10:01:22;6.22;;;3.30;;
67041;SDS011;53949;47.790;18.750;2022-12-24T10:04:27;5.45;;;3.92;;
67041;SDS011;53949;47.790;18.750;2022-12-24T10:07:50;6.72;;;3.72;;
67041;SDS011;53949;47.790;18.750;2022-12-24T10:14:34;4.40;;;3.22;;
67041;SDS011;53949;47.790;18.750;2022-12-24T10:18:05;5.22;;;3.42;;
67041;SDS011;53949;47.790;18.750;2022-12-24T10:21:27;3.83;;;3.12;;
67041;SDS011;53949;47.790;18.750;2022-12-24T10:24:42;3.78;;;2.83;;
67041;SDS011;53949;47.790;18.750;2022-12-24T10:27:53;7.85;;;3.08;;
67041;SDS011;53949;47.790;18.750;2022-12-24T10:30:58;6.30;;;3.20;;
67041;SDS011;53949;47.790;18.750;2022-12-24T10:34:06;4.55;;;3.25;;
67041;SDS011;53949;47.790;18.750;2022-12-24T10:37:19;3.87;;;2.65;;
67041;SDS011;53949;47.790;18.750;2022-12-24T10:40:40;7.18;;;2.50;;
67041;SDS011;53949;47.790;18.750;2022-12-24T10:43:45;4.47;;;1.95;;
67041;SDS011;53949;47.790;18.750;2022-12-24T10:46:49;2.12;;;1.30;;
67041;SDS011;53949;47.790;18.750;2022-12-24T10:53:24;2.22;;;0.90;;
67041;SDS011;53949;47.790;18.750;2022-12-24T10:56:41;1.87;;;0.88;;
67041;SDS011;53949;47.790;18.750;2022-12-24T10:59:49;1.50;;;1.15;;
67041;SDS011;53949;47.790;18.750;2022-12-24T11:03:16;1.05;;;0.80;;
67041;SDS011;53949;47.790;18.750;2022-12-24T11:06:24;1.67;;;0.88;;
67041;SDS011;53949;47.790;18.750;2022-12-24T11:10:13;1.65;;;0.80;;
67041;SDS011;53949;47.790;18.750;2022-12-24T11:13:00;1.62;;;0.90;;
67041;SDS011;53949;47.790;18.750;2022-12-24T11:19:29;3.08;;;1.45;;
67041;SDS011;53949;47.790;18.750;2022-12-24T11:22:34;2.55;;;1.12;;
67041;SDS011;53949;47.790;18.750;2022-12-24T11:25:37;2.15;;;0.80;;
67041;SDS011;53949;47.790;18.750;2022-12-24T11:28:42;2.03;;;1.15;;
67041;SDS011;53949;47.790;18.750;2022-12-24T11:31:46;0.93;;;0.70;;
67041;SDS011;53949;47.790;18.750;2022-12-24T11:34:50;1.97;;;1.00;;
67041;SDS011;53949;47.790;18.750;2022-12-24T11:41:06;3.12;;;1.17;;
67041;SDS011;53949;47.790;18.750;2022-12-24T11:44:13;2.12;;;0.62;;
67041;SDS011;53949;47.790;18.750;2022-12-24T11:47:18;1.65;;;0.88;;
67041;SDS011;53949;47.790;18.750;2022-12-24T11:50:34;4.47;;;1.10;;
67041;SDS011;53949;47.790;18.750;2022-12-24T11:53:44;5.90;;;1.00;;
67041;SDS011;53949;47.790;18.750;2022-12-24T11:56:50;1.70;;;0.73;;
67041;SDS011;53949;47.790;18.750;2022-12-24T11:59:55;2.30;;;1.00;;
67041;SDS011;53949;47.790;18.750;2022-12-24T12:02:58;4.28;;;1.00;;
67041;SDS011;53949;47.790;18.750;2022-12-24T12:06:06;1.65;;;0.90;;
67041;SDS011;53949;47.790;18.750;2022-12-24T12:09:23;4.82;;;1.27;;
67041;SDS011;53949;47.790;18.750;2022-12-24T12:12:31;4.65;;;1.15;;
67041;SDS011;53949;47.790;18.750;2022-12-24T12:15:41;4.50;;;1.30;;
67041;SDS011;53949;47.790;18.750;2022-12-24T12:18:48;2.03;;;1.17;;
67041;SDS011;53949;47.790;18.750;2022-12-24T12:21:59;1.98;;;0.80;;
67041;SDS011;53949;47.790;18.750;2022-12-24T12:25:13;2.08;;;0.77;;
67041;SDS011;53949;47.790;18.750;2022-12-24T12:28:45;4.07;;;0.90;;
67041;SDS011;53949;47.790;18.750;2022-12-24T12:31:53;2.53;;;1.05;;
67041;SDS011;53949;47.790;18.750;2022-12-24T12:38:36;4.70;;;1.17;;
67041;SDS011;53949;47.790;18.750;2022-12-24T12:52:31;2.80;;;1.05;;
67041;SDS011;53949;47.790;18.750;2022-12-24T13:06:20;3.55;;;1.52;;
67041;SDS011;53949;47.790;18.750;2022-12-24T13:23:20;3.10;;;1.33;;
67041;SDS011;53949;47.790;18.750;2022-12-24T13:26:26;2.33;;;1.27;;
67041;SDS011;53949;47.790;18.750;2022-12-24T13:32:39;5.20;;;1.70;;
67041;SDS011;53949;47.790;18.750;2022-12-24T13:35:58;5.47;;;1.95;;
67041;SDS011;53949;47.790;18.750;2022-12-24T13:39:03;3.67;;;1.30;;
67041;SDS011;53949;47.790;18.750;2022-12-24T13:42:06;2.28;;;1.20;;
67041;SDS011;53949;47.790;18.750;2022-12-24T13:48:34;3.80;;;1.65;;
67041;SDS011;53949;47.790;18.750;2022-12-24T13:51:37;4.75;;;2.10;;
67041;SDS011;53949;47.790;18.750;2022-12-24T13:54:41;5.20;;;2.62;;
67041;SDS011;53949;47.790;18.750;2022-12-24T13:58:01;2.95;;;1.52;;
67041;SDS011;53949;47.790;18.750;2022-12-24T14:01:05;4.90;;;1.95;;
67041;SDS011;53949;47.790;18.750;2022-12-24T14:04:20;4.28;;;2.03;;
67041;SDS011;53949;47.790;18.750;2022-12-24T14:07:26;5.30;;;2.10;;
67041;SDS011;53949;47.790;18.750;2022-12-24T14:10:30;5.80;;;2.05;;
67041;SDS011;53949;47.790;18.750;2022-12-24T14:16:50;3.25;;;1.83;;
67041;SDS011;53949;47.790;18.750;2022-12-24T14:19:55;2.83;;;1.70;;
67041;SDS011;53949;47.790;18.750;2022-12-24T14:23:00;3.53;;;1.55;;
67041;SDS011;53949;47.790;18.750;2022-12-24T14:26:03;3.25;;;1.80;;
67041;SDS011;53949;47.790;18.750;2022-12-24T14:32:35;2.75;;;1.60;;
67041;SDS011;53949;47.790;18.750;2022-12-24T14:35:40;2.95;;;1.60;;
67041;SDS011;53949;47.790;18.750;2022-12-24T14:38:43;4.30;;;1.95;;
67041;SDS011;53949;47.790;18.750;2022-12-24T14:45:36;2.83;;;1.80;;
67041;SDS011;53949;47.790;18.750;2022-12-24T14:48:46;4.37;;;1.40;;
67041;SDS011;53949;47.790;18.750;2022-12-24T14:58:46;2.55;;;1.40;;
67041;SDS011;53949;47.790;18.750;2022-12-24T15:01:50;3.33;;;1.67;;
67041;SDS011;53949;47.790;18.750;2022-12-24T15:05:02;6.62;;;1.83;;
67041;SDS011;53949;47.790;18.750;2022-12-24T15:08:13;2.17;;;1.70;;
67041;SDS011;53949;47.790;18.750;2022-12-24T15:11:19;3.03;;;1.65;;
67041;SDS011;53949;47.790;18.750;2022-12-24T15:14:24;2.80;;;1.42;;
67041;SDS011;53949;47.790;18.750;2022-12-24T15:17:32;6.25;;;1.70;;
67041;SDS011;53949;47.790;18.750;2022-12-24T15:20:36;3.22;;;1.58;;
67041;SDS011;53949;47.790;18.750;2022-12-24T15:23:43;3.15;;;1.80;;
67041;SDS011;53949;47.790;18.750;2022-12-24T15:26:48;5.03;;;2.20;;
67041;SDS011;53949;47.790;18.750;2022-12-24T15:29:52;5.85;;;2.87;;
67041;SDS011;53949;47.790;18.750;2022-12-24T15:32:58;8.98;;;3.37;;
67041;SDS011;53949;47.790;18.750;2022-12-24T15:36:01;6.20;;;2.72;;
67041;SDS011;53949;47.790;18.750;2022-12-24T15:39:06;3.20;;;2.03;;
67041;SDS011;53949;47.790;18.750;2022-12-24T15:42:16;4.97;;;2.08;;
67041;SDS011;53949;47.790;18.750;2022-12-24T15:45:28;6.75;;;2.70;;
67041;SDS011;53949;47.790;18.750;2022-12-24T15:48:32;7.18;;;2.50;;
67041;SDS011;53949;47.790;18.750;2022-12-24T15:51:37;7.28;;;2.17;;
67041;SDS011;53949;47.790;18.750;2022-12-24T15:54:45;4.47;;;1.65;;
67041;SDS011;53949;47.790;18.750;2022-12-24T15:57:58;10.52;;;2.80;;
67041;SDS011;53949;47.790;18.750;2022-12-24T16:04:12;7.10;;;2.40;;
67041;SDS011;53949;47.790;18.750;2022-12-24T16:07:25;6.35;;;2.10;;
67041;SDS011;53949;47.790;18.750;2022-12-24T16:14:23;3.60;;;1.73;;
67041;SDS011;53949;47.790;18.750;2022-12-24T16:17:27;5.57;;;2.08;;
67041;SDS011;53949;47.790;18.750;2022-12-24T16:20:31;3.75;;;1.70;;
67041;SDS011;53949;47.790;18.750;2022-12-24T16:23:38;8.70;;;3.70;;
67041;SDS011;53949;47.790;18.750;2022-12-24T16:26:48;25.20;;;13.52;;
67041;SDS011;53949;47.790;18.750;2022-12-24T16:29:53;26.70;;;9.80;;
67041;SDS011;53949;47.790;18.750;2022-12-24T16:32:56;11.70;;;3.92;;
67041;SDS011;53949;47.790;18.750;2022-12-24T16:36:00;13.55;;;6.75;;
67041;SDS011;53949;47.790;18.750;2022-12-24T16:39:03;5.30;;;2.25;;
67041;SDS011;53949;47.790;18.750;2022-12-24T16:42:25;5.50;;;2.87;;
67041;SDS011;53949;47.790;18.750;2022-12-24T16:45:46;5.37;;;1.75;;
67041;SDS011;53949;47.790;18.750;2022-12-24T16:48:50;13.57;;;7.43;;
67041;SDS011;53949;47.790;18.750;2022-12-24T16:51:53;17.77;;;9.73;;
67041;SDS011;53949;47.790;18.750;2022-12-24T16:54:58;42.55;;;23.35;;
67041;SDS011;53949;47.790;18.750;2022-12-24T16:58:02;52.92;;;29.98;;
67041;SDS011;53949;47.790;18.750;2022-12-24T17:01:06;23.83;;;13.15;;
67041;SDS011;53949;47.790;18.750;2022-12-24T17:04:10;36.65;;;26.08;;
67041;SDS011;53949;47.790;18.750;2022-12-24T17:07:15;4.35;;;2.50;;
67041;SDS011;53949;47.790;18.750;2022-12-24T17:10:19;5.87;;;2.47;;
67041;SDS011;53949;47.790;18.750;2022-12-24T17:13:22;6.00;;;1.98;;
67041;SDS011;53949;47.790;18.750;2022-12-24T17:16:26;4.00;;;1.52;;
67041;SDS011;53949;47.790;18.750;2022-12-24T17:19:29;9.88;;;3.15;;
67041;SDS011;53949;47.790;18.750;2022-12-24T17:22:32;6.55;;;2.20;;
67041;SDS011;53949;47.790;18.750;2022-12-24T17:25:37;6.95;;;2.30;;
67041;SDS011;53949;47.790;18.750;2022-12-24T17:28:40;6.03;;;1.85;;
67041;SDS011;53949;47.790;18.750;2022-12-24T17:31:45;5.03;;;2.05;;
67041;SDS011;53949;47.790;18.750;2022-12-24T17:34:49;7.05;;;2.53;;
67041;SDS011;53949;47.790;18.750;2022-12-24T17:37:52;7.40;;;2.65;;
67041;SDS011;53949;47.790;18.750;2022-12-24T17:40:59;7.22;;;3.00;;
67041;SDS011;53949;47.790;18.750;2022-12-24T17:44:04;5.03;;;2.40;;
67041;SDS011;53949;47.790;18.750;2022-12-24T17:47:10;6.55;;;2.50;;
67041;SDS011;53949;47.790;18.750;2022-12-24T17:50:13;4.57;;;2.50;;
67041;SDS011;53949;47.790;18.750;2022-12-24T17:53:16;8.70;;;2.65;;
67041;SDS011;53949;47.790;18.750;2022-12-24T17:56:19;6.43;;;2.65;;
67041;SDS011;53949;47.790;18.750;2022-12-24T17:59:22;3.05;;;2.28;;
67041;SDS011;53949;47.790;18.750;2022-12-24T18:02:26;4.30;;;2.40;;
67041;SDS011;53949;47.790;18.750;2022-12-24T18:05:32;6.00;;;2.80;;
67041;SDS011;53949;47.790;18.750;2022-12-24T18:08:37;4.00;;;2.20;;
67041;SDS011;53949;47.790;18.750;2022-12-24T18:11:40;3.57;;;2.50;;
67041;SDS011;53949;47.790;18.750;2022-12-24T18:14:43;4.35;;;2.60;;
67041;SDS011;53949;47.790;18.750;2022-12-24T18:17:49;5.15;;;2.60;;
67041;SDS011;53949;47.790;18.750;2022-12-24T18:20:53;2.67;;;2.12;;
67041;SDS011;53949;47.790;18.750;2022-12-24T18:23:57;4.95;;;2.55;;
67041;SDS011;53949;47.790;18.750;2022-12-24T18:27:00;6.62;;;2.22;;
67041;SDS011;53949;47.790;18.750;2022-12-24T18:30:05;3.12;;;1.95;;
67041;SDS011;53949;47.790;18.750;2022-12-24T18:33:10;3.78;;;2.20;;
67041;SDS011;53949;47.790;18.750;2022-12-24T18:36:13;6.72;;;2.97;;
67041;SDS011;53949;47.790;18.750;2022-12-24T18:39:16;5.97;;;2.67;;
67041;SDS011;53949;47.790;18.750;2022-12-24T18:42:20;4.95;;;2.22;;
67041;SDS011;53949;47.790;18.750;2022-12-24T18:45:23;5.93;;;2.37;;
67041;SDS011;53949;47.790;18.750;2022-12-24T18:48:26;6.75;;;3.12;;
67041;SDS011;53949;47.790;18.750;2022-12-24T18:51:33;5.78;;;3.50;;
67041;SDS011;53949;47.790;18.750;2022-12-24T18:54:38;4.93;;;3.35;;
67041;SDS011;53949;47.790;18.750;2022-12-24T18:57:41;10.65;;;4.05;;
67041;SDS011;53949;47.790;18.750;2022-12-24T19:00:45;7.15;;;4.43;;
67041;SDS011;53949;47.790;18.750;2022-12-24T19:03:49;6.87;;;4.28;;
67041;SDS011;53949;47.790;18.750;2022-12-24T19:06:53;6.90;;;3.65;;
67041;SDS011;53949;47.790;18.750;2022-12-24T19:09:56;6.45;;;3.83;;
67041;SDS011;53949;47.790;18.750;2022-12-24T19:12:59;6.78;;;3.58;;
67041;SDS011;53949;47.790;18.750;2022-12-24T19:16:03;5.75;;;2.90;;
67041;SDS011;53949;47.790;18.750;2022-12-24T19:22:10;4.12;;;2.30;;
67041;SDS011;53949;47.790;18.750;2022-12-24T19:25:15;2.83;;;2.10;;
67041;SDS011;53949;47.790;18.750;2022-12-24T19:28:17;9.25;;;3.10;;
67041;SDS011;53949;47.790;18.750;2022-12-24T19:31:27;4.82;;;2.83;;
67041;SDS011;53949;47.790;18.750;2022-12-24T19:34:31;6.15;;;2.72;;
67041;SDS011;53949;47.790;18.750;2022-12-24T19:37:35;5.70;;;2.73;;
67041;SDS011;53949;47.790;18.750;2022-12-24T19:40:38;4.87;;;2.30;;
67041;SDS011;53949;47.790;18.750;2022-12-24T19:43:42;5.22;;;3.15;;
67041;SDS011;53949;47.790;18.750;2022-12-24T19:46:47;6.25;;;2.60;;
67041;SDS011;53949;47.790;18.750;2022-12-24T19:49:50;5.87;;;3.05;;
67041;SDS011;53949;47.790;18.750;2022-12-24T19:52:53;5.55;;;3.28;;
67041;SDS011;53949;47.790;18.750;2022-12-24T19:55:56;3.85;;;2.65;;
67041;SDS011;53949;47.790;18.750;2022-12-24T19:59:00;9.60;;;3.50;;
67041;SDS011;53949;47.790;18.750;2022-12-24T20:02:07;7.97;;;4.53;;
67041;SDS011;53949;47.790;18.750;2022-12-24T20:05:12;8.00;;;4.12;;
67041;SDS011;53949;47.790;18.750;2022-12-24T20:08:15;8.40;;;4.10;;
67041;SDS011;53949;47.790;18.750;2022-12-24T20:11:19;5.22;;;3.10;;
67041;SDS011;53949;47.790;18.750;2022-12-24T20:14:23;6.72;;;4.12;;